Time;durP1;ratioP1;P1;durP2;ratioP2;P2;SDS_P1;SDS_P2;PMS_P1;PMS_P2;Temp;Humidity;BMP_temperature;BMP_pressure;BME280_temperature;BME280_humidity;BME280_pressure;Samples;Min_cycle;Max_cycle;Signal;HPM_P1;HPM_P2
2022/10/15 00:02:32;;;;;;;193.43;43.72;;;12.90;99.90;;;;;;6097904;23;20122;-87
2022/10/15 00:05:13;;;;;;;;;;;11.50;99.90;;;;;;6183354;22;20020;-87
2022/10/15 00:07:40;;;;;;;197.63;44.45;;;11.50;99.90;;;;;;6216178;23;19915;-87
2022/10/15 00:10:26;;;;;;;266.85;46.83;;;13.00;99.90;;;;;;6217876;23;20124;-88
2022/10/15 00:12:58;;;;;;;387.25;50.13;;;12.40;99.90;;;;;;6245088;23;20523;-87
2022/10/15 00:15:45;;;;;;;281.75;33.17;;;12.70;99.90;;;;;;6245329;23;20058;-87
2022/10/15 00:18:29;;;;;;;349.88;37.42;;;11.50;99.90;;;;;;6219892;23;20052;-87
2022/10/15 00:21:09;;;;;;;264.67;33.72;;;11.50;99.90;;;;;;6218984;23;20016;-88
2022/10/15 00:23:50;;;;;;;275.05;32.72;;;11.50;99.90;;;;;;6219543;23;20016;-88
2022/10/15 00:26:20;;;;;;;314.50;37.53;;;12.80;99.90;;;;;;6246686;23;20123;-88
2022/10/15 00:29:13;;;;;;;244.70;32.90;;;12.30;99.90;;;;;;6219010;23;20345;-88
2022/10/15 00:31:50;;;;;;;258.73;33.83;;;10.90;99.90;;;;;;6247114;23;20016;-87
2022/10/15 00:34:18;;;;;;;236.55;32.83;;;12.10;99.90;;;;;;6218540;23;20077;-87
2022/10/15 00:36:43;;;;;;;271.40;34.60;;;11.20;99.90;;;;;;6246581;23;20016;-87
2022/10/15 00:39:15;;;;;;;255.75;33.22;;;11.50;99.90;;;;;;6246340;23;20471;-88
2022/10/15 00:41:42;;;;;;;269.40;34.58;;;10.60;99.90;;;;;;6245342;23;20380;-87
2022/10/15 00:44:20;;;;;;;260.80;33.50;;;11.50;99.90;;;;;;6245921;23;20026;-87
2022/10/15 00:46:48;;;;;;;276.63;34.35;;;11.40;99.90;;;;;;6246731;23;20027;-87
2022/10/15 00:49:52;;;;;;;271.35;35.00;;;12.20;99.90;;;;;;6245666;23;20382;-87
2022/10/15 00:52:37;;;;;;;292.10;34.13;;;11.60;99.90;;;;;;6219161;23;20016;-87
2022/10/15 00:55:17;;;;;;;273.67;33.92;;;13.00;99.90;;;;;;6246619;23;20298;-87
2022/10/15 00:58:20;;;;;;;301.25;34.65;;;11.80;99.90;;;;;;6219601;23;20027;-87
2022/10/15 01:00:59;;;;;;;282.75;33.78;;;11.20;99.90;;;;;;6219607;23;20332;-87
2022/10/15 01:08:04;;;;;;;315.13;33.72;;;11.30;99.90;;;;;;6238347;23;20111;-87
2022/10/15 01:11:04;;;;;;;243.57;31.90;;;11.50;99.90;;;;;;6213527;23;20338;-87
2022/10/15 01:14:21;;;;;;;305.02;34.90;;;11.50;99.90;;;;;;6128395;23;20018;-87
2022/10/15 01:17:14;;;;;;;281.20;32.13;;;11.40;99.90;;;;;;6127770;23;20350;-87
2022/10/15 01:19:49;;;;;;;281.07;32.27;;;11.50;99.90;;;;;;6216271;23;20020;-87
2022/10/15 01:22:55;;;;;;;310.40;32.50;;;10.50;99.90;;;;;;6214228;23;20009;-88
2022/10/15 01:25:54;;;;;;;245.15;31.00;;;11.40;99.90;;;;;;6187668;23;20017;-87
2022/10/15 01:28:42;;;;;;;193.52;30.77;;;10.80;99.90;;;;;;6163440;23;20012;-87
2022/10/15 01:31:27;;;;;;;232.05;31.00;;;11.40;99.90;;;;;;6214910;23;20024;-87
2022/10/15 01:34:08;;;;;;;348.45;34.58;;;11.40;99.90;;;;;;6217351;23;20031;-87
2022/10/15 01:36:49;;;;;;;307.00;32.70;;;11.40;99.90;;;;;;6197057;23;20017;-87
2022/10/15 01:39:30;;;;;;;211.30;29.55;;;11.40;99.90;;;;;;6214478;23;20121;-87
2022/10/15 01:42:02;;;;;;;204.93;30.17;;;10.80;99.90;;;;;;6215978;23;20027;-87
2022/10/15 01:44:41;;;;;;;173.32;29.73;;;11.40;99.90;;;;;;6188259;23;20104;-88
2022/10/15 01:47:22;;;;;;;207.10;31.30;;;12.10;99.90;;;;;;6188473;23;20520;-88
2022/10/15 01:53:25;;;;;;;212.32;29.90;;;11.30;99.90;;;;;;6214301;23;20023;-87
2022/10/15 01:56:18;;;;;;;184.88;29.77;;;12.30;99.90;;;;;;6189101;23;20035;-88
2022/10/15 01:59:01;;;;;;;189.27;29.10;;;11.30;99.90;;;;;;6187790;23;20126;-87
2022/10/15 02:01:27;;;;;;;175.43;29.35;;;11.40;99.90;;;;;;6188401;23;20021;-87
2022/10/15 02:08:13;;;;;;;182.27;28.33;;;11.30;99.90;;;;;;6214107;23;20100;-88
2022/10/15 02:11:11;;;;;;;221.75;29.58;;;11.10;99.90;;;;;;6229540;22;20523;-88
2022/10/15 02:13:58;;;;;;;148.40;27.73;;;11.10;99.90;;;;;;6243907;23;20043;-87
2022/10/15 02:22:01;;;;;;;174.55;29.05;;;11.10;99.90;;;;;;6259806;22;20070;-87
2022/10/15 02:24:47;;;;;;;198.57;29.52;;;12.20;99.90;;;;;;6248475;22;20390;-87
2022/10/15 02:27:17;;;;;;;209.23;28.02;;;10.80;99.90;;;;;;6275323;22;20102;-87
2022/10/15 02:29:56;;;;;;;152.10;27.40;;;10.40;99.90;;;;;;6275895;22;20377;-87
2022/10/15 02:32:23;;;;;;;125.28;24.70;;;12.50;99.90;;;;;;6248609;22;20023;-87
2022/10/15 02:35:14;;;;;;;132.55;26.63;;;12.00;99.90;;;;;;6274915;22;20023;-87
2022/10/15 02:37:51;;;;;;;122.97;26.35;;;11.10;99.90;;;;;;6247201;22;20015;-87
2022/10/15 02:40:33;;;;;;;131.35;27.40;;;11.70;99.90;;;;;;6248392;22;20361;-87
2022/10/15 02:43:11;;;;;;;153.27;27.65;;;12.50;99.90;;;;;;6275416;22;20332;-87
2022/10/15 02:45:46;;;;;;;156.65;27.40;;;11.00;99.90;;;;;;6248658;22;20091;-87
2022/10/15 02:48:30;;;;;;;136.40;27.13;;;11.90;99.90;;;;;;6247216;22;20015;-87
2022/10/15 02:51:05;;;;;;;142.73;28.23;;;11.70;99.90;;;;;;6275729;22;20012;-87
2022/10/15 02:53:43;;;;;;;150.55;28.05;;;11.90;99.90;;;;;;6248044;22;20016;-87
2022/10/15 02:56:09;;;;;;;130.20;27.48;;;12.40;99.90;;;;;;6275138;22;20069;-87
2022/10/15 02:58:36;;;;;;;141.95;29.27;;;11.60;99.90;;;;;;6248653;22;20406;-87
2022/10/15 03:01:07;;;;;;;140.05;28.13;;;10.70;99.90;;;;;;6249417;22;20023;-87
2022/10/15 03:03:33;;;;;;;141.98;28.98;;;11.00;99.90;;;;;;6275498;22;20074;-87
2022/10/15 03:06:16;;;;;;;139.27;28.42;;;10.80;99.90;;;;;;6248209;22;20331;-87
2022/10/15 03:08:43;;;;;;;129.70;28.70;;;11.50;99.90;;;;;;6248612;22;20098;-87
2022/10/15 03:11:11;;;;;;;149.70;29.08;;;12.20;99.90;;;;;;6274880;22;20065;-87
2022/10/15 03:13:38;;;;;;;212.10;39.70;;;11.90;99.90;;;;;;6275971;22;20083;-87
2022/10/15 03:16:08;;;;;;;225.48;40.60;;;11.40;99.90;;;;;;6275498;22;20012;-87
2022/10/15 03:18:34;;;;;;;189.77;37.90;;;11.00;99.90;;;;;;6248608;22;20137;-87
2022/10/15 03:21:06;;;;;;;171.32;38.00;;;11.00;99.90;;;;;;6248066;22;20425;-87
2022/10/15 03:23:32;;;;;;;163.02;39.08;;;11.00;99.90;;;;;;6247740;22;20050;-87
2022/10/15 03:26:16;;;;;;;190.60;39.15;;;12.00;99.90;;;;;;6248578;22;20015;-87
2022/10/15 03:31:48;;;;;;;205.35;41.22;;;11.00;99.90;;;;;;6269617;22;20019;-87
2022/10/15 03:34:14;;;;;;;195.00;41.10;;;11.00;99.90;;;;;;6248240;22;20046;-87
2022/10/15 03:36:52;;;;;;;217.15;41.50;;;11.00;99.90;;;;;;6248511;22;20444;-87
2022/10/15 03:39:17;;;;;;;168.32;39.53;;;12.40;99.90;;;;;;6274834;22;20047;-87
2022/10/15 03:42:17;;;;;;;147.00;34.90;;;10.50;99.90;;;;;;6275390;22;20034;-87
2022/10/15 03:45:02;;;;;;;163.18;39.80;;;11.00;99.90;;;;;;6248344;22;20047;-87
2022/10/15 03:47:28;;;;;;;169.38;38.78;;;11.00;99.90;;;;;;6274741;22;20024;-87
2022/10/15 03:49:56;;;;;;;152.02;38.38;;;11.40;99.90;;;;;;6249509;22;20123;-87
2022/10/15 03:52:36;;;;;;;147.68;36.85;;;11.20;99.90;;;;;;6249142;22;20051;-87
2022/10/15 03:55:02;;;;;;;146.10;37.35;;;12.10;99.90;;;;;;6250474;22;20022;-87
2022/10/15 03:57:41;;;;;;;155.02;36.83;;;10.90;99.90;;;;;;6277834;22;20046;-87
2022/10/15 04:00:49;;;;;;;169.98;36.72;;;10.70;99.90;;;;;;6250285;22;20016;-87
2022/10/15 04:03:33;;;;;;;113.68;26.10;;;10.90;99.90;;;;;;6223826;22;20018;-87
2022/10/15 04:06:17;;;;;;;107.55;27.80;;;10.90;99.90;;;;;;6275924;22;20327;-87
2022/10/15 04:08:43;;;;;;;89.65;25.95;;;11.00;99.90;;;;;;6277561;22;20051;-87
2022/10/15 04:18:47;;;;;;;92.95;25.05;;;10.80;99.90;;;;;;6277655;22;20523;-87
2022/10/15 04:21:12;;;;;;;83.97;25.52;;;10.30;99.90;;;;;;6248992;22;20015;-87
2022/10/15 04:23:47;;;;;;;85.78;25.58;;;10.60;99.90;;;;;;6249903;22;20062;-87
2022/10/15 04:26:13;;;;;;;81.00;23.98;;;12.30;99.90;;;;;;6249600;22;20374;-87
2022/10/15 04:28:54;;;;;;;82.03;24.35;;;10.80;99.90;;;;;;6249421;22;20509;-87
2022/10/15 04:35:55;;;;;;;78.30;24.92;;;10.80;99.90;;;;;;6275961;22;20150;-87
2022/10/15 04:38:30;;;;;;;92.75;31.30;;;10.80;99.90;;;;;;6248349;22;20070;-87
2022/10/15 04:49:11;;;;;;;121.82;33.88;;;10.70;99.90;;;;;;6263708;22;20106;-87
2022/10/15 04:51:43;;;;;;;104.25;31.35;;;9.60;99.90;;;;;;6249259;22;20093;-87
2022/10/15 04:54:28;;;;;;;100.68;31.90;;;12.00;99.90;;;;;;6276879;22;20007;-87
2022/10/15 04:56:54;;;;;;;110.43;32.08;;;10.70;99.90;;;;;;6121754;23;20460;-87
2022/10/15 04:59:20;;;;;;;101.22;31.73;;;10.00;99.90;;;;;;6123799;23;20014;-87
2022/10/15 05:01:51;;;;;;;94.03;31.25;;;10.50;99.90;;;;;;6097262;23;20026;-87
2022/10/15 05:04:18;;;;;;;95.80;32.00;;;11.40;99.90;;;;;;6123680;23;20018;-87
2022/10/15 05:06:50;;;;;;;105.82;32.88;;;9.60;99.90;;;;;;6215815;22;20027;-87
2022/10/15 05:09:15;;;;;;;105.07;31.27;;;11.10;99.90;;;;;;6248353;22;20439;-87
2022/10/15 05:11:47;;;;;;;112.72;30.45;;;10.80;99.90;;;;;;6277203;22;20014;-87
2022/10/15 05:14:19;;;;;;;121.55;30.88;;;10.90;99.90;;;;;;6248964;22;20016;-87
2022/10/15 05:17:02;;;;;;;99.07;28.45;;;10.40;99.90;;;;;;6276340;22;20455;-87
2022/10/15 05:19:37;;;;;;;103.60;30.20;;;10.70;99.90;;;;;;6249196;22;20064;-87
2022/10/15 05:22:20;;;;;;;125.60;33.03;;;9.50;99.90;;;;;;6276985;22;20012;-86
2022/10/15 05:24:46;;;;;;;78.93;25.15;;;11.60;99.90;;;;;;6249069;22;20019;-87
2022/10/15 05:27:12;;;;;;;80.85;23.88;;;11.30;99.90;;;;;;6276228;22;20054;-87
2022/10/15 05:29:49;;;;;;;83.88;24.00;;;11.00;99.90;;;;;;6248569;22;20322;-85
2022/10/15 05:32:26;;;;;;;83.88;23.10;;;9.70;99.90;;;;;;6248857;22;20015;-82
2022/10/15 05:34:52;;;;;;;86.00;24.20;;;10.00;99.90;;;;;;6249134;22;20391;-81
2022/10/15 05:37:17;;;;;;;88.95;25.33;;;9.70;99.90;;;;;;6275490;22;20042;-82
2022/10/15 05:39:43;;;;;;;86.97;26.95;;;9.90;99.90;;;;;;6249313;22;20020;-83
2022/10/15 05:42:09;;;;;;;76.80;24.50;;;9.90;99.90;;;;;;6276388;22;20079;-83
2022/10/15 05:44:34;;;;;;;80.53;24.73;;;9.90;99.90;;;;;;6276076;22;20448;-83
2022/10/15 05:47:00;;;;;;;81.07;28.05;;;9.80;99.90;;;;;;6249345;22;20012;-83
2022/10/15 05:49:26;;;;;;;77.30;25.02;;;9.80;99.90;;;;;;6276470;22;20464;-83
2022/10/15 05:51:51;;;;;;;87.90;25.83;;;9.90;99.90;;;;;;6248579;22;20018;-82
2022/10/15 05:54:17;;;;;;;83.53;27.30;;;9.80;99.90;;;;;;6249130;22;20451;-82
2022/10/15 05:56:42;;;;;;;76.60;26.07;;;10.80;99.90;;;;;;6249680;22;20016;-82
2022/10/15 05:59:08;;;;;;;77.70;24.65;;;9.90;99.90;;;;;;6247886;22;20518;-82
2022/10/15 06:01:33;;;;;;;84.40;25.35;;;10.60;99.90;;;;;;6249224;22;20339;-81
2022/10/15 06:03:59;;;;;;;89.15;27.08;;;9.80;99.90;;;;;;6276225;22;20048;-81
2022/10/15 06:06:25;;;;;;;81.78;24.73;;;9.90;99.90;;;;;;6275567;22;20065;-82
2022/10/15 06:08:52;;;;;;;91.50;27.27;;;10.00;99.90;;;;;;6274305;22;20467;-83
2022/10/15 06:11:18;;;;;;;97.45;29.20;;;10.10;99.90;;;;;;6248571;22;20317;-80
2022/10/15 06:13:45;;;;;;;89.20;27.00;;;10.00;99.90;;;;;;6274736;22;20008;-81
2022/10/15 06:16:12;;;;;;;94.82;26.60;;;10.00;99.90;;;;;;6275586;22;20015;-81
2022/10/15 06:18:38;;;;;;;88.90;26.42;;;10.10;99.90;;;;;;6249428;22;20008;-81
2022/10/15 06:21:05;;;;;;;89.57;26.27;;;10.10;99.90;;;;;;6248215;22;20016;-81
2022/10/15 06:23:34;;;;;;;89.40;28.23;;;10.10;99.90;;;;;;6247905;22;20472;-82
2022/10/15 06:26:05;;;;;;;80.70;26.77;;;10.10;99.90;;;;;;6247419;22;20073;-82
2022/10/15 06:28:32;;;;;;;80.57;26.92;;;10.20;99.90;;;;;;6248495;22;20452;-82
2022/10/15 06:30:58;;;;;;;77.65;26.92;;;10.20;99.90;;;;;;6249294;22;20012;-81
2022/10/15 06:33:24;;;;;;;92.07;27.75;;;10.20;99.90;;;;;;6275138;22;20012;-81
2022/10/15 06:35:50;;;;;;;79.85;26.60;;;10.20;99.90;;;;;;6248312;22;20444;-82
2022/10/15 06:38:16;;;;;;;82.03;26.48;;;10.30;99.90;;;;;;6248948;22;20030;-84
2022/10/15 06:40:42;;;;;;;80.18;27.75;;;10.30;99.90;;;;;;6248643;22;20008;-85
2022/10/15 06:43:09;;;;;;;72.60;24.73;;;11.60;99.90;;;;;;6276000;22;20027;-84
2022/10/15 06:45:37;;;;;;;80.90;27.37;;;10.30;99.90;;;;;;6247938;22;20061;-84
2022/10/15 06:48:03;;;;;;;88.93;27.40;;;10.30;99.90;;;;;;6275485;22;20028;-83
2022/10/15 06:50:34;;;;;;;82.35;27.65;;;10.30;99.90;;;;;;6249208;22;20118;-83
2022/10/15 06:53:00;;;;;;;74.30;27.20;;;10.40;99.90;;;;;;6247600;22;20459;-84
2022/10/15 06:55:34;;;;;;;88.80;29.35;;;10.50;99.90;;;;;;6274995;22;20023;-84
2022/10/15 06:58:00;;;;;;;;;;;10.50;99.90;;;;;;6276700;22;20015;-84
2022/10/15 07:00:26;;;;;;;79.95;27.35;;;10.60;99.90;;;;;;6275710;22;19978;-84
2022/10/15 07:02:52;;;;;;;79.82;27.88;;;10.70;99.90;;;;;;6248007;22;20019;-84
2022/10/15 07:05:18;;;;;;;82.18;27.55;;;10.70;99.90;;;;;;6276181;22;20038;-84
2022/10/15 07:07:51;;;;;;;81.22;28.27;;;10.80;99.90;;;;;;6276079;22;20086;-84
2022/10/15 07:10:17;;;;;;;84.32;28.00;;;10.80;99.90;;;;;;6248038;22;20023;-84
2022/10/15 07:12:42;;;;;;;99.07;29.73;;;10.90;99.90;;;;;;6249259;22;20012;-84
2022/10/15 07:15:08;;;;;;;89.85;29.00;;;10.90;99.90;;;;;;6273118;22;20065;-84
2022/10/15 07:17:34;;;;;;;83.47;28.95;;;11.00;99.90;;;;;;6249083;22;20016;-84
2022/10/15 07:20:00;;;;;;;88.80;29.83;;;10.90;99.90;;;;;;6275933;22;20011;-84
2022/10/15 07:22:26;;;;;;;89.35;30.40;;;11.00;99.90;;;;;;6247806;22;20019;-84
2022/10/15 07:24:51;;;;;;;80.28;28.85;;;11.00;99.90;;;;;;6251267;22;20007;-84
2022/10/15 07:27:17;;;;;;;79.57;30.02;;;11.00;99.90;;;;;;6278773;22;20343;-84
2022/10/15 07:29:48;;;;;;;86.50;30.38;;;11.10;99.90;;;;;;6251033;22;20016;-84
2022/10/15 07:32:30;;;;;;;94.47;30.88;;;12.50;99.90;;;;;;6251879;22;20014;-84
2022/10/15 07:34:56;;;;;;;86.63;30.15;;;10.50;99.90;;;;;;6280397;22;20026;-83
2022/10/15 07:37:22;;;;;;;84.25;31.48;;;12.40;99.90;;;;;;6279494;22;20008;-84
2022/10/15 07:39:47;;;;;;;93.22;31.75;;;11.30;99.90;;;;;;6278620;22;20020;-84
2022/10/15 07:42:16;;;;;;;91.53;32.10;;;11.40;99.90;;;;;;6251619;22;20500;-84
2022/10/15 07:44:41;;;;;;;94.22;33.72;;;11.50;99.90;;;;;;6278196;22;20023;-84
2022/10/15 07:47:07;;;;;;;78.13;29.58;;;11.60;99.90;;;;;;6251464;22;20019;-84
2022/10/15 07:49:32;;;;;;;66.93;28.60;;;11.70;99.90;;;;;;6252080;22;20023;-84
2022/10/15 07:51:58;;;;;;;70.85;29.40;;;13.00;99.90;;;;;;6251325;22;20034;-84
2022/10/15 07:54:24;;;;;;;72.10;29.58;;;11.80;99.90;;;;;;6251553;22;20016;-84
2022/10/15 07:56:49;;;;;;;75.25;29.38;;;11.80;99.90;;;;;;6279534;22;20428;-84
2022/10/15 07:59:15;;;;;;;69.20;29.75;;;11.80;99.90;;;;;;6250542;22;20382;-84
2022/10/15 08:01:40;;;;;;;72.05;30.35;;;11.90;99.90;;;;;;6251795;22;20502;-84
2022/10/15 08:04:06;;;;;;;67.70;28.70;;;13.10;99.90;;;;;;6251800;22;20047;-85
2022/10/15 08:06:32;;;;;;;64.78;28.52;;;12.20;99.90;;;;;;6250935;22;20008;-84
2022/10/15 08:09:15;;;;;;;72.00;28.50;;;12.10;99.90;;;;;;6279504;22;20098;-84
2022/10/15 08:11:56;;;;;;;59.67;29.63;;;12.40;99.90;;;;;;6250717;22;20022;-83
2022/10/15 08:18:20;;;;;;;73.13;30.80;;;12.20;99.90;;;;;;6278804;22;20343;-84
2022/10/15 08:20:46;;;;;;;73.47;32.33;;;14.20;99.90;;;;;;6251529;22;20074;-84
2022/10/15 08:23:20;;;;;;;69.97;30.70;;;14.40;99.90;;;;;;6251435;22;20011;-84
2022/10/15 08:25:46;;;;;;;65.38;30.92;;;13.10;99.90;;;;;;6277736;22;20018;-84
2022/10/15 08:28:15;;;;;;;67.45;31.60;;;13.70;99.90;;;;;;6278729;22;20090;-84
2022/10/15 08:30:52;;;;;;;66.53;30.60;;;13.40;99.90;;;;;;6251841;22;20015;-84
2022/10/15 08:33:18;;;;;;;62.45;30.27;;;13.70;99.90;;;;;;6277075;22;20076;-84
2022/10/15 08:35:44;;;;;;;64.45;30.90;;;13.70;99.90;;;;;;6250878;22;20051;-84
2022/10/15 08:38:29;;;;;;;60.35;30.92;;;13.40;99.90;;;;;;6249265;22;20019;-84
2022/10/15 08:40:57;;;;;;;60.53;30.05;;;14.90;99.90;;;;;;6218783;23;20074;-84
2022/10/15 08:43:29;;;;;;;61.15;30.98;;;15.00;99.90;;;;;;6246663;23;20087;-84
2022/10/15 08:45:59;;;;;;;59.85;30.17;;;13.60;99.90;;;;;;6246948;23;20019;-84
2022/10/15 08:48:31;;;;;;;54.53;29.80;;;14.70;99.90;;;;;;6218607;23;20017;-84
2022/10/15 08:51:04;;;;;;;55.95;30.08;;;13.60;99.90;;;;;;6220218;23;20054;-84
2022/10/15 08:53:38;;;;;;;53.45;29.60;;;13.50;99.90;;;;;;6219969;23;20087;-84
2022/10/15 08:56:14;;;;;;;52.47;29.38;;;13.50;99.90;;;;;;6219596;23;20341;-84
2022/10/15 08:59:15;;;;;;;54.22;29.85;;;13.50;99.90;;;;;;6219994;23;20038;-84
2022/10/15 09:01:53;;;;;;;51.85;27.70;;;13.50;99.90;;;;;;6245504;23;20023;-84
2022/10/15 09:04:34;;;;;;;52.47;26.85;;;13.80;99.90;;;;;;6218926;23;20094;-84
2022/10/15 09:07:12;;;;;;;54.58;29.10;;;13.50;99.90;;;;;;6219645;23;20012;-84
2022/10/15 09:09:49;;;;;;;56.80;32.38;;;13.50;99.90;;;;;;6245805;23;20051;-83
2022/10/15 09:12:36;;;;;;;64.45;35.40;;;13.50;99.90;;;;;;6245986;23;20023;-84
2022/10/15 09:15:09;;;;;;;56.40;30.50;;;13.30;99.90;;;;;;6245803;23;20020;-84
2022/10/15 09:17:36;;;;;;;48.65;26.38;;;13.30;99.90;;;;;;6246585;23;20063;-84
2022/10/15 09:20:06;;;;;;;47.88;28.30;;;14.10;99.90;;;;;;6246730;23;20066;-84
2022/10/15 09:22:34;;;;;;;44.22;22.35;;;13.10;99.90;;;;;;6245502;23;20054;-84
2022/10/15 09:25:14;;;;;;;45.35;24.70;;;14.10;99.90;;;;;;6219756;23;20016;-84
2022/10/15 09:27:40;;;;;;;42.92;24.23;;;12.90;99.90;;;;;;6246408;23;20023;-85
2022/10/15 09:30:26;;;;;;;57.17;29.38;;;12.80;99.90;;;;;;6245355;23;20024;-83
2022/10/15 09:32:57;;;;;;;50.75;23.77;;;13.30;99.90;;;;;;6246613;23;20383;-84
2022/10/15 09:35:28;;;;;;;50.58;24.52;;;12.70;99.90;;;;;;6218957;23;20460;-84
2022/10/15 09:38:15;;;;;;;48.88;24.08;;;12.80;99.90;;;;;;6245546;23;20016;-84
2022/10/15 09:40:55;;;;;;;58.75;25.85;;;12.80;99.90;;;;;;6275062;22;20495;-84
2022/10/15 09:43:29;;;;;;;53.17;24.55;;;12.60;99.90;;;;;;6275612;22;20099;-84
2022/10/15 09:45:55;;;;;;;56.45;25.50;;;13.40;99.90;;;;;;6276572;22;20018;-83
2022/10/15 09:48:22;;;;;;;61.65;27.75;;;13.60;99.90;;;;;;6276041;22;20023;-84
2022/10/15 09:51:11;;;;;;;61.03;26.75;;;12.70;99.90;;;;;;6248981;22;20012;-83
2022/10/15 09:54:10;;;;;;;56.55;26.70;;;12.80;99.90;;;;;;6249501;22;20066;-84
2022/10/15 09:56:41;;;;;;;61.92;28.48;;;12.80;99.90;;;;;;6276775;22;20047;-83
2022/10/15 09:59:17;;;;;;;61.08;28.65;;;13.80;99.90;;;;;;6248098;22;20364;-83
2022/10/15 10:02:11;;;;;;;55.47;25.05;;;12.90;99.90;;;;;;6276571;22;20015;-84
2022/10/15 10:04:37;;;;;;;52.08;25.23;;;12.90;99.90;;;;;;6248794;22;20027;-84
2022/10/15 10:07:08;;;;;;;55.22;25.42;;;13.00;99.90;;;;;;6276853;22;20458;-83
2022/10/15 10:09:48;;;;;;;50.45;24.55;;;13.00;99.90;;;;;;6276860;22;20038;-84
2022/10/15 10:12:21;;;;;;;49.45;23.33;;;13.10;99.90;;;;;;6248334;22;20020;-84
2022/10/15 10:15:07;;;;;;;50.15;25.48;;;13.10;99.90;;;;;;6276901;22;20023;-84
2022/10/15 10:17:33;;;;;;;48.13;23.40;;;13.20;99.90;;;;;;6276629;22;20050;-83
2022/10/15 10:20:02;;;;;;;44.20;23.23;;;13.20;99.90;;;;;;6276005;22;20016;-84
2022/10/15 10:22:27;;;;;;;53.63;28.38;;;14.20;99.90;;;;;;6248818;22;20352;-83
2022/10/15 10:24:56;;;;;;;46.28;23.25;;;13.30;99.90;;;;;;6249699;22;20023;-84
2022/10/15 10:27:26;;;;;;;43.88;22.08;;;13.50;99.90;;;;;;6248776;22;20011;-84
2022/10/15 10:29:57;;;;;;;42.30;22.60;;;13.50;99.90;;;;;;6249253;22;20046;-84
2022/10/15 10:32:31;;;;;;;36.70;20.05;;;13.90;99.90;;;;;;6248167;22;20067;-84
2022/10/15 10:34:58;;;;;;;;;;;13.60;99.90;;;;;;6249563;22;20352;-84
2022/10/15 10:37:24;;;;;;;37.25;19.98;;;13.70;99.90;;;;;;6276474;22;19915;-83
2022/10/15 10:39:58;;;;;;;35.10;18.77;;;13.80;99.90;;;;;;6248053;22;20137;-84
2022/10/15 10:42:30;;;;;;;34.60;18.77;;;14.20;99.90;;;;;;6275936;22;20019;-83
2022/10/15 10:45:14;;;;;;;33.70;17.88;;;13.90;99.90;;;;;;6249179;22;20012;-84
2022/10/15 10:47:39;;;;;;;33.72;18.05;;;14.70;99.90;;;;;;6248896;22;20047;-84
2022/10/15 10:50:29;;;;;;;29.75;16.73;;;14.00;99.90;;;;;;6249555;22;20016;-84
2022/10/15 10:52:56;;;;;;;30.77;16.20;;;14.10;99.90;;;;;;6275933;22;20344;-84
2022/10/15 10:55:36;;;;;;;29.63;16.05;;;14.50;99.90;;;;;;6230329;22;20466;-83
2022/10/15 10:58:03;;;;;;;27.98;15.27;;;14.90;99.90;;;;;;6248826;22;20047;-83
2022/10/15 11:00:42;;;;;;;28.42;14.77;;;15.90;99.90;;;;;;6247469;22;20047;-83
2022/10/15 11:03:32;;;;;;;26.35;15.23;;;15.10;99.90;;;;;;6248660;22;20317;-83
2022/10/15 11:06:28;;;;;;;23.40;13.63;;;15.10;99.90;;;;;;6276522;22;20012;-84
2022/10/15 11:09:55;;;;;;;21.33;11.80;;;15.30;99.90;;;;;;6275769;22;20046;-84
2022/10/15 11:12:37;;;;;;;22.92;12.50;;;15.10;99.90;;;;;;6206956;22;20380;-84
2022/10/15 11:15:28;;;;;;;22.02;12.15;;;15.10;99.90;;;;;;6274935;22;20077;-83
2022/10/15 11:18:12;;;;;;;22.98;12.52;;;14.90;99.90;;;;;;6275148;22;20015;-83
2022/10/15 11:21:13;;;;;;;23.05;12.68;;;14.90;99.90;;;;;;6276476;22;20022;-84
2022/10/15 11:27:55;;;;;;;23.15;12.50;;;14.80;99.90;;;;;;6275894;22;20026;-83
2022/10/15 11:30:46;;;;;;;23.35;12.38;;;14.90;99.90;;;;;;6247484;22;20019;-83
2022/10/15 11:33:50;;;;;;;23.27;11.40;;;14.90;99.90;;;;;;6248264;22;20090;-83
2022/10/15 11:36:43;;;;;;;20.30;11.10;;;14.80;99.90;;;;;;6247627;22;20011;-83
2022/10/15 11:39:26;;;;;;;22.08;11.75;;;14.80;99.90;;;;;;6275932;22;20015;-83
2022/10/15 11:42:06;;;;;;;23.20;11.55;;;14.90;99.90;;;;;;6276408;22;20065;-83
2022/10/15 11:44:40;;;;;;;22.73;11.73;;;14.90;99.90;;;;;;6275461;22;20331;-83
2022/10/15 11:47:09;;;;;;;19.20;11.82;;;14.90;99.90;;;;;;6248406;22;20022;-83
2022/10/15 11:49:52;;;;;;;18.17;9.98;;;14.90;99.90;;;;;;6275246;22;20016;-83
2022/10/15 11:53:25;;;;;;;16.00;8.52;;;14.90;99.90;;;;;;6248487;22;20016;-84
2022/10/15 11:56:01;;;;;;;18.23;9.57;;;14.80;99.90;;;;;;6086213;23;20018;-83
2022/10/15 11:58:32;;;;;;;16.17;9.00;;;14.80;99.90;;;;;;6097360;23;20033;-83
2022/10/15 12:01:07;;;;;;;19.48;9.80;;;15.00;99.90;;;;;;6241217;22;20022;-83
2022/10/15 12:03:41;;;;;;;17.85;9.68;;;15.10;99.90;;;;;;6247775;22;20016;-83
2022/10/15 12:06:12;;;;;;;21.05;10.43;;;14.60;99.90;;;;;;6276063;22;20091;-83
2022/10/15 12:08:39;;;;;;;18.65;9.65;;;14.90;99.90;;;;;;6248054;22;20091;-83
2022/10/15 12:11:40;;;;;;;20.33;10.77;;;15.10;99.90;;;;;;6276808;22;20022;-84
2022/10/15 12:14:12;;;;;;;19.33;10.32;;;15.10;99.90;;;;;;6277833;22;20023;-83
2022/10/15 12:17:14;;;;;;;21.98;10.55;;;15.20;99.90;;;;;;6277994;22;20373;-84
2022/10/15 12:20:17;;;;;;;19.30;11.00;;;15.10;99.90;;;;;;6277200;22;20023;-84
2022/10/15 12:23:03;;;;;;;20.67;11.48;;;15.00;99.90;;;;;;6250566;22;20456;-83
2022/10/15 12:25:47;;;;;;;21.58;11.25;;;16.20;99.90;;;;;;6243289;23;20023;-83
2022/10/15 12:28:18;;;;;;;24.77;13.75;;;16.20;99.90;;;;;;6270258;22;20027;-83
2022/10/15 12:31:03;;;;;;;25.35;12.10;;;15.00;99.90;;;;;;6250399;22;20027;-83
2022/10/15 12:33:46;;;;;;;24.58;12.68;;;15.00;99.90;;;;;;6248959;22;20020;-83
2022/10/15 12:36:26;;;;;;;25.90;12.35;;;15.00;99.90;;;;;;6250162;22;20070;-84
2022/10/15 12:39:05;;;;;;;25.30;12.73;;;15.50;99.90;;;;;;6249181;22;20046;-83
2022/10/15 12:41:42;;;;;;;23.27;12.45;;;15.90;99.90;;;;;;6249981;22;20026;-83
2022/10/15 12:44:14;;;;;;;27.25;13.65;;;14.90;99.90;;;;;;6250119;22;20015;-83
2022/10/15 12:46:40;;;;;;;27.75;14.38;;;14.80;99.90;;;;;;6276989;22;20023;-83
2022/10/15 12:49:31;;;;;;;28.35;14.25;;;15.40;99.90;;;;;;6277522;22;20016;-83
2022/10/15 12:51:58;;;;;;;28.73;15.43;;;14.80;99.90;;;;;;6277842;22;20094;-83
2022/10/15 12:54:41;;;;;;;29.42;15.40;;;15.50;99.90;;;;;;6248728;22;20020;-83
2022/10/15 12:57:29;;;;;;;30.40;16.25;;;14.90;99.90;;;;;;6250477;22;20046;-83
2022/10/15 12:59:57;;;;;;;33.28;16.38;;;14.80;99.90;;;;;;6249145;22;20016;-83
2022/10/15 13:02:31;;;;;;;31.50;17.30;;;14.80;99.90;;;;;;6276897;22;20475;-83
2022/10/15 13:04:57;;;;;;;31.38;17.05;;;14.80;99.90;;;;;;6249994;22;20015;-83
2022/10/15 13:07:26;;;;;;;31.95;17.48;;;15.70;99.90;;;;;;6248700;22;20023;-84
2022/10/15 13:09:55;;;;;;;31.77;17.38;;;15.30;99.90;;;;;;6276658;22;20466;-83
2022/10/15 13:12:30;;;;;;;32.45;18.55;;;14.80;99.90;;;;;;6276148;22;20734;-83
2022/10/15 13:15:04;;;;;;;30.33;18.23;;;14.70;99.90;;;;;;6249139;22;20340;-84
2022/10/15 13:17:30;;;;;;;30.52;18.63;;;14.70;99.90;;;;;;6249690;22;20016;-83
2022/10/15 13:20:03;;;;;;;34.80;19.70;;;14.90;99.90;;;;;;6276974;22;20016;-83
2022/10/15 13:22:31;;;;;;;32.42;18.20;;;15.40;99.90;;;;;;6275947;22;20015;-83
2022/10/15 13:24:58;;;;;;;35.17;19.67;;;14.70;99.90;;;;;;6250346;22;20018;-83
2022/10/15 13:27:44;;;;;;;35.25;19.38;;;15.90;99.90;;;;;;6249217;22;20023;-83
2022/10/15 13:30:15;;;;;;;34.45;20.02;;;14.70;99.90;;;;;;6247652;22;20012;-84
2022/10/15 13:32:55;;;;;;;36.22;20.23;;;14.80;99.90;;;;;;6249954;22;20321;-84
2022/10/15 13:35:38;;;;;;;37.13;20.83;;;14.70;99.90;;;;;;6269331;22;20024;-84
2022/10/15 13:38:23;;;;;;;36.40;19.90;;;14.70;99.90;;;;;;6277518;22;20012;-84
2022/10/15 13:40:51;;;;;;;38.97;20.70;;;14.80;99.90;;;;;;6249735;22;20012;-84
2022/10/15 13:43:23;;;;;;;33.97;19.65;;;14.80;99.90;;;;;;6248632;22;20018;-84
2022/10/15 13:45:54;;;;;;;34.13;19.65;;;14.80;99.90;;;;;;6249495;22;20513;-84
2022/10/15 13:48:23;;;;;;;35.13;19.85;;;14.80;99.90;;;;;;6276586;22;20007;-84
2022/10/15 13:50:57;;;;;;;32.50;19.20;;;14.80;99.90;;;;;;6275916;22;20012;-84
2022/10/15 13:53:29;;;;;;;34.67;19.67;;;14.80;99.90;;;;;;6249015;22;20334;-84
2022/10/15 13:55:57;;;;;;;31.48;18.50;;;14.80;99.90;;;;;;6249435;22;20030;-84